sensor_id;sensor_type;location;lat;lon;timestamp;P1;durP1;ratioP1;P2;durP2;ratioP2
49071;SDS011;74284;52.610;10.236;2024-03-23T00:53:47;28.40;;;11.95;;
49071;SDS011;74284;52.610;10.236;2024-03-23T00:58:37;28.33;;;11.07;;
49071;SDS011;74284;52.610;10.236;2024-03-23T01:01:02;25.77;;;12.20;;
49071;SDS011;74284;52.610;10.236;2024-03-23T01:03:29;26.67;;;12.73;;
49071;SDS011;74284;52.610;10.236;2024-03-23T01:05:54;28.58;;;12.05;;
49071;SDS011;74284;52.610;10.236;2024-03-23T01:08:23;23.23;;;11.02;;
49071;SDS011;74284;52.610;10.236;2024-03-23T01:10:58;26.63;;;11.57;;
49071;SDS011;74284;52.610;10.236;2024-03-23T01:13:25;24.75;;;11.45;;
49071;SDS011;74284;52.610;10.236;2024-03-23T01:15:51;21.98;;;10.40;;
49071;SDS011;74284;52.610;10.236;2024-03-23T01:18:17;20.52;;;11.25;;
49071;SDS011;74284;52.610;10.236;2024-03-23T01:20:43;23.05;;;11.40;;
49071;SDS011;74284;52.610;10.236;2024-03-23T01:23:09;19.75;;;11.10;;
49071;SDS011;74284;52.610;10.236;2024-03-23T01:25:34;25.35;;;11.30;;
49071;SDS011;74284;52.610;10.236;2024-03-23T01:28:00;25.90;;;11.65;;
49071;SDS011;74284;52.610;10.236;2024-03-23T01:30:25;24.80;;;11.52;;
49071;SDS011;74284;52.610;10.236;2024-03-23T01:35:15;24.30;;;11.73;;
49071;SDS011;74284;52.610;10.236;2024-03-23T01:37:41;26.47;;;11.73;;
49071;SDS011;74284;52.610;10.236;2024-03-23T01:40:06;21.05;;;11.30;;
49071;SDS011;74284;52.610;10.236;2024-03-23T01:42:32;28.08;;;12.68;;
49071;SDS011;74284;52.610;10.236;2024-03-23T01:44:57;22.23;;;11.50;;
49071;SDS011;74284;52.610;10.236;2024-03-23T01:47:22;34.17;;;12.40;;
49071;SDS011;74284;52.610;10.236;2024-03-23T01:49:48;33.20;;;13.52;;
49071;SDS011;74284;52.610;10.236;2024-03-23T01:54:39;38.83;;;12.60;;
49071;SDS011;74284;52.610;10.236;2024-03-23T01:57:05;29.80;;;12.27;;
49071;SDS011;74284;52.610;10.236;2024-03-23T01:59:30;23.33;;;12.00;;
49071;SDS011;74284;52.610;10.236;2024-03-23T02:01:56;28.00;;;11.23;;
49071;SDS011;74284;52.610;10.236;2024-03-23T02:04:21;20.57;;;11.20;;
49071;SDS011;74284;52.610;10.236;2024-03-23T02:06:46;33.58;;;12.02;;
49071;SDS011;74284;52.610;10.236;2024-03-23T02:09:11;27.00;;;11.32;;
49071;SDS011;74284;52.610;10.236;2024-03-23T02:11:37;56.83;;;12.85;;
49071;SDS011;74284;52.610;10.236;2024-03-23T02:16:27;43.30;;;12.73;;
49071;SDS011;74284;52.610;10.236;2024-03-23T02:18:52;27.60;;;11.95;;
49071;SDS011;74284;52.610;10.236;2024-03-23T02:21:18;28.73;;;12.02;;
49071;SDS011;74284;52.610;10.236;2024-03-23T02:23:43;34.07;;;12.47;;
49071;SDS011;74284;52.610;10.236;2024-03-23T02:26:08;19.20;;;9.80;;
49071;SDS011;74284;52.610;10.236;2024-03-23T02:28:34;28.45;;;11.68;;
49071;SDS011;74284;52.610;10.236;2024-03-23T02:30:59;26.33;;;11.55;;
49071;SDS011;74284;52.610;10.236;2024-03-23T02:33:26;30.58;;;12.25;;
49071;SDS011;74284;52.610;10.236;2024-03-23T02:35:52;32.40;;;12.00;;
49071;SDS011;74284;52.610;10.236;2024-03-23T02:38:21;34.17;;;12.35;;
49071;SDS011;74284;52.610;10.236;2024-03-23T02:40:46;25.83;;;11.30;;
49071;SDS011;74284;52.610;10.236;2024-03-23T02:43:11;26.73;;;11.70;;
49071;SDS011;74284;52.610;10.236;2024-03-23T02:45:36;31.97;;;11.57;;
49071;SDS011;74284;52.610;10.236;2024-03-23T02:48:02;33.43;;;11.87;;
49071;SDS011;74284;52.610;10.236;2024-03-23T02:50:27;24.90;;;9.93;;
49071;SDS011;74284;52.610;10.236;2024-03-23T02:52:52;32.75;;;11.48;;
49071;SDS011;74284;52.610;10.236;2024-03-23T02:55:18;28.67;;;11.60;;
49071;SDS011;74284;52.610;10.236;2024-03-23T02:57:44;16.60;;;9.02;;
49071;SDS011;74284;52.610;10.236;2024-03-23T03:00:09;24.45;;;10.60;;
49071;SDS011;74284;52.610;10.236;2024-03-23T03:02:35;25.52;;;10.07;;
49071;SDS011;74284;52.610;10.236;2024-03-23T03:05:02;31.58;;;10.13;;
49071;SDS011;74284;52.610;10.236;2024-03-23T03:07:29;28.13;;;11.05;;
49071;SDS011;74284;52.610;10.236;2024-03-23T03:09:55;23.92;;;10.02;;
49071;SDS011;74284;52.610;10.236;2024-03-23T03:12:20;26.17;;;11.13;;
49071;SDS011;74284;52.610;10.236;2024-03-23T03:14:45;37.90;;;12.63;;
49071;SDS011;74284;52.610;10.236;2024-03-23T03:17:11;27.10;;;10.80;;
49071;SDS011;74284;52.610;10.236;2024-03-23T03:19:36;26.57;;;10.77;;
49071;SDS011;74284;52.610;10.236;2024-03-23T03:22:01;31.77;;;11.23;;
49071;SDS011;74284;52.610;10.236;2024-03-23T03:26:52;24.10;;;9.65;;
49071;SDS011;74284;52.610;10.236;2024-03-23T03:29:17;26.88;;;9.70;;
49071;SDS011;74284;52.610;10.236;2024-03-23T03:31:43;24.33;;;9.48;;
49071;SDS011;74284;52.610;10.236;2024-03-23T03:34:08;24.55;;;9.88;;
49071;SDS011;74284;52.610;10.236;2024-03-23T03:36:33;27.42;;;9.18;;
49071;SDS011;74284;52.610;10.236;2024-03-23T03:38:59;33.40;;;9.70;;
49071;SDS011;74284;52.610;10.236;2024-03-23T03:41:24;28.97;;;8.50;;
49071;SDS011;74284;52.610;10.236;2024-03-23T03:43:49;19.63;;;6.67;;
49071;SDS011;74284;52.610;10.236;2024-03-23T03:46:15;20.80;;;7.47;;
49071;SDS011;74284;52.610;10.236;2024-03-23T03:48:40;22.90;;;6.93;;
49071;SDS011;74284;52.610;10.236;2024-03-23T03:51:05;21.05;;;7.07;;
49071;SDS011;74284;52.610;10.236;2024-03-23T03:53:30;18.02;;;6.50;;
49071;SDS011;74284;52.610;10.236;2024-03-23T03:55:56;18.00;;;6.65;;
49071;SDS011;74284;52.610;10.236;2024-03-23T03:58:25;21.17;;;6.63;;
49071;SDS011;74284;52.610;10.236;2024-03-23T04:00:50;38.10;;;7.88;;
49071;SDS011;74284;52.610;10.236;2024-03-23T04:03:15;19.88;;;6.63;;
49071;SDS011;74284;52.610;10.236;2024-03-23T04:05:40;23.03;;;7.33;;
49071;SDS011;74284;52.610;10.236;2024-03-23T04:08:06;23.57;;;7.33;;
49071;SDS011;74284;52.610;10.236;2024-03-23T04:10:32;22.63;;;7.53;;
49071;SDS011;74284;52.610;10.236;2024-03-23T04:12:57;21.83;;;8.65;;
49071;SDS011;74284;52.610;10.236;2024-03-23T04:15:23;20.00;;;7.20;;
49071;SDS011;74284;52.610;10.236;2024-03-23T04:17:48;21.00;;;6.80;;
49071;SDS011;74284;52.610;10.236;2024-03-23T04:20:13;20.63;;;6.67;;
49071;SDS011;74284;52.610;10.236;2024-03-23T04:22:42;21.60;;;6.93;;
49071;SDS011;74284;52.610;10.236;2024-03-23T04:25:07;27.33;;;8.63;;
49071;SDS011;74284;52.610;10.236;2024-03-23T04:27:33;33.28;;;8.30;;
49071;SDS011;74284;52.610;10.236;2024-03-23T04:29:58;26.00;;;8.20;;
49071;SDS011;74284;52.610;10.236;2024-03-23T04:32:26;30.50;;;8.93;;
49071;SDS011;74284;52.610;10.236;2024-03-23T04:34:51;25.35;;;8.77;;
49071;SDS011;74284;52.610;10.236;2024-03-23T04:37:16;26.58;;;8.88;;
49071;SDS011;74284;52.610;10.236;2024-03-23T04:42:08;24.88;;;9.82;;
49071;SDS011;74284;52.610;10.236;2024-03-23T04:44:33;33.90;;;10.75;;
49071;SDS011;74284;52.610;10.236;2024-03-23T04:47:00;25.52;;;9.93;;
49071;SDS011;74284;52.610;10.236;2024-03-23T04:49:25;31.23;;;10.52;;
49071;SDS011;74284;52.610;10.236;2024-03-23T04:51:50;25.83;;;10.40;;
49071;SDS011;74284;52.610;10.236;2024-03-23T04:54:16;35.90;;;12.65;;
49071;SDS011;74284;52.610;10.236;2024-03-23T04:56:41;32.78;;;11.50;;
49071;SDS011;74284;52.610;10.236;2024-03-23T04:59:07;32.75;;;11.82;;
49071;SDS011;74284;52.610;10.236;2024-03-23T05:01:32;31.17;;;10.63;;
49071;SDS011;74284;52.610;10.236;2024-03-23T05:03:58;34.85;;;10.88;;
49071;SDS011;74284;52.610;10.236;2024-03-23T05:06:24;29.20;;;10.90;;
49071;SDS011;74284;52.610;10.236;2024-03-23T05:08:50;26.25;;;10.88;;
49071;SDS011;74284;52.610;10.236;2024-03-23T05:13:41;31.52;;;10.93;;
49071;SDS011;74284;52.610;10.236;2024-03-23T05:16:07;31.92;;;11.65;;
49071;SDS011;74284;52.610;10.236;2024-03-23T05:20:58;27.02;;;10.43;;
49071;SDS011;74284;52.610;10.236;2024-03-23T05:23:24;22.63;;;9.57;;
49071;SDS011;74284;52.610;10.236;2024-03-23T05:25:50;27.80;;;9.65;;
49071;SDS011;74284;52.610;10.236;2024-03-23T05:28:16;27.00;;;9.30;;
49071;SDS011;74284;52.610;10.236;2024-03-23T05:30:42;27.10;;;9.65;;
49071;SDS011;74284;52.610;10.236;2024-03-23T05:33:07;28.23;;;10.18;;
49071;SDS011;74284;52.610;10.236;2024-03-23T05:35:32;29.38;;;10.45;;
49071;SDS011;74284;52.610;10.236;2024-03-23T05:37:58;33.97;;;10.38;;
49071;SDS011;74284;52.610;10.236;2024-03-23T05:40:26;37.10;;;10.90;;
49071;SDS011;74284;52.610;10.236;2024-03-23T05:42:52;31.92;;;9.65;;
49071;SDS011;74284;52.610;10.236;2024-03-23T05:45:23;27.65;;;9.98;;
49071;SDS011;74284;52.610;10.236;2024-03-23T05:47:48;26.25;;;9.85;;
49071;SDS011;74284;52.610;10.236;2024-03-23T05:50:14;25.05;;;9.23;;
49071;SDS011;74284;52.610;10.236;2024-03-23T05:52:39;32.00;;;9.48;;
49071;SDS011;74284;52.610;10.236;2024-03-23T05:55:05;23.55;;;9.52;;
49071;SDS011;74284;52.610;10.236;2024-03-23T05:59:56;24.50;;;8.77;;
49071;SDS011;74284;52.610;10.236;2024-03-23T06:02:22;28.15;;;9.82;;
49071;SDS011;74284;52.610;10.236;2024-03-23T06:04:48;25.58;;;8.65;;
49071;SDS011;74284;52.610;10.236;2024-03-23T06:07:13;22.38;;;8.50;;
49071;SDS011;74284;52.610;10.236;2024-03-23T06:09:42;31.48;;;10.00;;
49071;SDS011;74284;52.610;10.236;2024-03-23T06:12:07;23.67;;;9.57;;
49071;SDS011;74284;52.610;10.236;2024-03-23T06:14:32;29.95;;;9.98;;
49071;SDS011;74284;52.610;10.236;2024-03-23T06:16:58;25.23;;;8.30;;
49071;SDS011;74284;52.610;10.236;2024-03-23T06:19:24;22.85;;;10.10;;
49071;SDS011;74284;52.610;10.236;2024-03-23T06:21:52;25.75;;;9.35;;
49071;SDS011;74284;52.610;10.236;2024-03-23T06:24:17;24.40;;;9.10;;
49071;SDS011;74284;52.610;10.236;2024-03-23T06:26:43;22.25;;;9.43;;
49071;SDS011;74284;52.610;10.236;2024-03-23T06:29:08;28.98;;;9.20;;
49071;SDS011;74284;52.610;10.236;2024-03-23T06:31:34;27.25;;;8.98;;
49071;SDS011;74284;52.610;10.236;2024-03-23T06:33:59;20.60;;;9.13;;
49071;SDS011;74284;52.610;10.236;2024-03-23T06:36:24;26.25;;;9.40;;
49071;SDS011;74284;52.610;10.236;2024-03-23T06:38:49;20.75;;;9.07;;
49071;SDS011;74284;52.610;10.236;2024-03-23T06:41:15;36.38;;;9.48;;
49071;SDS011;74284;52.610;10.236;2024-03-23T06:43:40;22.25;;;8.88;;
49071;SDS011;74284;52.610;10.236;2024-03-23T06:46:05;24.80;;;8.07;;
49071;SDS011;74284;52.610;10.236;2024-03-23T06:48:31;24.93;;;8.90;;
49071;SDS011;74284;52.610;10.236;2024-03-23T06:50:56;24.42;;;8.80;;
49071;SDS011;74284;52.610;10.236;2024-03-23T06:53:22;22.50;;;8.00;;
49071;SDS011;74284;52.610;10.236;2024-03-23T06:55:51;22.33;;;7.65;;
49071;SDS011;74284;52.610;10.236;2024-03-23T06:58:18;17.00;;;7.32;;
49071;SDS011;74284;52.610;10.236;2024-03-23T07:00:44;21.95;;;7.30;;
49071;SDS011;74284;52.610;10.236;2024-03-23T07:03:10;23.60;;;7.53;;
49071;SDS011;74284;52.610;10.236;2024-03-23T07:05:35;22.35;;;7.55;;
49071;SDS011;74284;52.610;10.236;2024-03-23T07:08:00;20.42;;;7.60;;
49071;SDS011;74284;52.610;10.236;2024-03-23T07:10:26;28.10;;;6.97;;
49071;SDS011;74284;52.610;10.236;2024-03-23T07:12:51;20.27;;;7.22;;
49071;SDS011;74284;52.610;10.236;2024-03-23T07:15:16;17.63;;;6.18;;
49071;SDS011;74284;52.610;10.236;2024-03-23T07:17:41;20.00;;;6.15;;
49071;SDS011;74284;52.610;10.236;2024-03-23T07:20:07;21.98;;;6.45;;
49071;SDS011;74284;52.610;10.236;2024-03-23T07:22:35;25.13;;;7.03;;
49071;SDS011;74284;52.610;10.236;2024-03-23T07:25:01;19.73;;;6.93;;
49071;SDS011;74284;52.610;10.236;2024-03-23T07:27:26;20.52;;;6.57;;
49071;SDS011;74284;52.610;10.236;2024-03-23T07:29:52;21.90;;;6.30;;
49071;SDS011;74284;52.610;10.236;2024-03-23T07:32:17;20.00;;;6.28;;
49071;SDS011;74284;52.610;10.236;2024-03-23T07:34:42;19.83;;;6.38;;
49071;SDS011;74284;52.610;10.236;2024-03-23T07:37:09;20.75;;;6.53;;
49071;SDS011;74284;52.610;10.236;2024-03-23T07:39:35;18.08;;;6.30;;
49071;SDS011;74284;52.610;10.236;2024-03-23T07:42:00;13.55;;;4.75;;
49071;SDS011;74284;52.610;10.236;2024-03-23T07:44:25;20.45;;;5.63;;
49071;SDS011;74284;52.610;10.236;2024-03-23T07:46:50;21.87;;;6.13;;
49071;SDS011;74284;52.610;10.236;2024-03-23T07:49:16;22.45;;;5.45;;
49071;SDS011;74284;52.610;10.236;2024-03-23T07:51:41;19.80;;;5.93;;
49071;SDS011;74284;52.610;10.236;2024-03-23T07:54:06;19.00;;;5.93;;
49071;SDS011;74284;52.610;10.236;2024-03-23T07:56:32;23.50;;;6.20;;
49071;SDS011;74284;52.610;10.236;2024-03-23T07:58:57;20.63;;;5.78;;
49071;SDS011;74284;52.610;10.236;2024-03-23T08:01:22;22.13;;;6.80;;
49071;SDS011;74284;52.610;10.236;2024-03-23T08:03:49;24.58;;;6.28;;
49071;SDS011;74284;52.610;10.236;2024-03-23T08:06:17;26.27;;;6.75;;
49071;SDS011;74284;52.610;10.236;2024-03-23T08:08:45;20.55;;;6.53;;
49071;SDS011;74284;52.610;10.236;2024-03-23T08:11:11;27.40;;;7.00;;
49071;SDS011;74284;52.610;10.236;2024-03-23T08:13:38;22.73;;;6.57;;
49071;SDS011;74284;52.610;10.236;2024-03-23T08:16:04;29.27;;;7.82;;
49071;SDS011;74284;52.610;10.236;2024-03-23T08:18:30;19.17;;;7.70;;
49071;SDS011;74284;52.610;10.236;2024-03-23T08:20:59;19.80;;;6.90;;
49071;SDS011;74284;52.610;10.236;2024-03-23T08:23:25;27.48;;;7.85;;
49071;SDS011;74284;52.610;10.236;2024-03-23T08:25:52;18.20;;;6.95;;
49071;SDS011;74284;52.610;10.236;2024-03-23T08:28:22;29.33;;;8.13;;
49071;SDS011;74284;52.610;10.236;2024-03-23T08:30:47;26.70;;;8.10;;
49071;SDS011;74284;52.610;10.236;2024-03-23T08:33:12;20.38;;;6.80;;
49071;SDS011;74284;52.610;10.236;2024-03-23T08:35:38;19.20;;;7.10;;
49071;SDS011;74284;52.610;10.236;2024-03-23T08:38:03;32.85;;;8.05;;
49071;SDS011;74284;52.610;10.236;2024-03-23T08:42:54;29.13;;;8.68;;
49071;SDS011;74284;52.610;10.236;2024-03-23T08:45:19;20.17;;;7.22;;
49071;SDS011;74284;52.610;10.236;2024-03-23T08:47:44;26.75;;;7.75;;
49071;SDS011;74284;52.610;10.236;2024-03-23T08:50:10;20.75;;;7.28;;
49071;SDS011;74284;52.610;10.236;2024-03-23T08:52:35;20.35;;;7.68;;
49071;SDS011;74284;52.610;10.236;2024-03-23T08:55:00;22.23;;;7.75;;
49071;SDS011;74284;52.610;10.236;2024-03-23T08:57:26;39.50;;;7.28;;
49071;SDS011;74284;52.610;10.236;2024-03-23T08:59:51;24.70;;;7.65;;
49071;SDS011;74284;52.610;10.236;2024-03-23T09:02:17;19.90;;;7.43;;
49071;SDS011;74284;52.610;10.236;2024-03-23T09:04:42;21.23;;;6.53;;
49071;SDS011;74284;52.610;10.236;2024-03-23T09:07:09;21.58;;;7.25;;
49071;SDS011;74284;52.610;10.236;2024-03-23T09:11:59;19.17;;;7.90;;
49071;SDS011;74284;52.610;10.236;2024-03-23T09:14:24;21.83;;;6.63;;
49071;SDS011;74284;52.610;10.236;2024-03-23T09:16:50;20.60;;;7.22;;
49071;SDS011;74284;52.610;10.236;2024-03-23T09:21:42;21.13;;;6.55;;
49071;SDS011;74284;52.610;10.236;2024-03-23T09:26:32;16.65;;;5.07;;
49071;SDS011;74284;52.610;10.236;2024-03-23T09:28:58;20.15;;;5.47;;
49071;SDS011;74284;52.610;10.236;2024-03-23T09:31:23;24.27;;;5.75;;
49071;SDS011;74284;52.610;10.236;2024-03-23T09:33:48;17.70;;;6.15;;
49071;SDS011;74284;52.610;10.236;2024-03-23T09:36:14;15.93;;;5.97;;
49071;SDS011;74284;52.610;10.236;2024-03-23T09:41:09;16.65;;;4.75;;
49071;SDS011;74284;52.610;10.236;2024-03-23T09:43:34;16.48;;;5.00;;
49071;SDS011;74284;52.610;10.236;2024-03-23T09:48:27;15.98;;;4.93;;
49071;SDS011;74284;52.610;10.236;2024-03-23T09:50:52;20.75;;;5.45;;
49071;SDS011;74284;52.610;10.236;2024-03-23T09:53:17;18.73;;;4.78;;
49071;SDS011;74284;52.610;10.236;2024-03-23T09:58:12;13.35;;;4.93;;
49071;SDS011;74284;52.610;10.236;2024-03-23T10:00:38;18.70;;;5.70;;
49071;SDS011;74284;52.610;10.236;2024-03-23T10:07:57;13.50;;;3.70;;
49071;SDS011;74284;52.610;10.236;2024-03-23T10:12:49;10.98;;;3.67;;
49071;SDS011;74284;52.610;10.236;2024-03-23T10:15:18;17.05;;;4.22;;
49071;SDS011;74284;52.610;10.236;2024-03-23T10:17:44;16.42;;;4.47;;
49071;SDS011;74284;52.610;10.236;2024-03-23T10:22:36;16.40;;;4.93;;
49071;SDS011;74284;52.610;10.236;2024-03-23T10:25:10;14.10;;;4.95;;
49071;SDS011;74284;52.610;10.236;2024-03-23T10:27:36;11.35;;;4.40;;
49071;SDS011;74284;52.610;10.236;2024-03-23T10:32:37;22.60;;;5.20;;
49071;SDS011;74284;52.610;10.236;2024-03-23T10:37:44;15.63;;;5.45;;
49071;SDS011;74284;52.610;10.236;2024-03-23T10:40:12;13.80;;;4.15;;
49071;SDS011;74284;52.610;10.236;2024-03-23T10:45:07;14.05;;;4.07;;
49071;SDS011;74284;52.610;10.236;2024-03-23T10:47:36;10.98;;;3.40;;
49071;SDS011;74284;52.610;10.236;2024-03-23T10:50:03;12.32;;;3.25;;
49071;SDS011;74284;52.610;10.236;2024-03-23T10:52:30;13.00;;;3.72;;
49071;SDS011;74284;52.610;10.236;2024-03-23T10:57:23;10.77;;;3.60;;
49071;SDS011;74284;52.610;10.236;2024-03-23T11:00:01;9.00;;;3.08;;
49071;SDS011;74284;52.610;10.236;2024-03-23T11:02:28;10.93;;;3.53;;
49071;SDS011;74284;52.610;10.236;2024-03-23T11:04:54;13.07;;;3.40;;
49071;SDS011;74284;52.610;10.236;2024-03-23T11:09:51;14.57;;;3.60;;
49071;SDS011;74284;52.610;10.236;2024-03-23T11:14:59;7.90;;;2.63;;
49071;SDS011;74284;52.610;10.236;2024-03-23T11:17:27;4.55;;;1.60;;
49071;SDS011;74284;52.610;10.236;2024-03-23T11:25:02;7.90;;;1.95;;
49071;SDS011;74284;52.610;10.236;2024-03-23T11:27:37;8.95;;;1.90;;
49071;SDS011;74284;52.610;10.236;2024-03-23T11:32:34;7.15;;;2.00;;
49071;SDS011;74284;52.610;10.236;2024-03-23T11:37:25;4.30;;;1.70;;
49071;SDS011;74284;52.610;10.236;2024-03-23T11:39:51;9.20;;;2.03;;
49071;SDS011;74284;52.610;10.236;2024-03-23T11:44:42;6.72;;;2.47;;
49071;SDS011;74284;52.610;10.236;2024-03-23T11:47:08;9.38;;;2.30;;
49071;SDS011;74284;52.610;10.236;2024-03-23T11:49:34;8.13;;;2.22;;
49071;SDS011;74284;52.610;10.236;2024-03-23T11:52:05;5.43;;;2.22;;
49071;SDS011;74284;52.610;10.236;2024-03-23T11:56:59;8.53;;;2.40;;
49071;SDS011;74284;52.610;10.236;2024-03-23T11:59:34;7.05;;;2.45;;
49071;SDS011;74284;52.610;10.236;2024-03-23T12:01:59;7.32;;;2.25;;
49071;SDS011;74284;52.610;10.236;2024-03-23T12:09:39;9.13;;;2.63;;
49071;SDS011;74284;52.610;10.236;2024-03-23T12:12:06;7.22;;;2.80;;
49071;SDS011;74284;52.610;10.236;2024-03-23T12:14:33;10.57;;;2.78;;
49071;SDS011;74284;52.610;10.236;2024-03-23T12:19:32;7.43;;;2.58;;
49071;SDS011;74284;52.610;10.236;2024-03-23T12:24:22;3.92;;;2.05;;
49071;SDS011;74284;52.610;10.236;2024-03-23T12:29:15;3.55;;;1.60;;
49071;SDS011;74284;52.610;10.236;2024-03-23T12:34:06;4.38;;;1.95;;
49071;SDS011;74284;52.610;10.236;2024-03-23T12:36:31;4.80;;;1.53;;
49071;SDS011;74284;52.610;10.236;2024-03-23T12:38:56;3.77;;;1.33;;
49071;SDS011;74284;52.610;10.236;2024-03-23T12:41:21;5.35;;;1.08;;
49071;SDS011;74284;52.610;10.236;2024-03-23T12:43:48;4.38;;;1.10;;
49071;SDS011;74284;52.610;10.236;2024-03-23T12:48:39;1.25;;;1.00;;
49071;SDS011;74284;52.610;10.236;2024-03-23T12:51:04;2.33;;;1.25;;
49071;SDS011;74284;52.610;10.236;2024-03-23T12:55:54;4.13;;;1.30;;
49071;SDS011;74284;52.610;10.236;2024-03-23T12:58:22;2.63;;;1.10;;
49071;SDS011;74284;52.610;10.236;2024-03-23T13:03:13;2.13;;;1.30;;
49071;SDS011;74284;52.610;10.236;2024-03-23T13:05:39;4.80;;;1.88;;
49071;SDS011;74284;52.610;10.236;2024-03-23T13:10:30;2.72;;;1.30;;
49071;SDS011;74284;52.610;10.236;2024-03-23T13:12:56;3.42;;;0.93;;
49071;SDS011;74284;52.610;10.236;2024-03-23T13:17:46;2.50;;;1.00;;
49071;SDS011;74284;52.610;10.236;2024-03-23T13:22:39;3.30;;;1.48;;
49071;SDS011;74284;52.610;10.236;2024-03-23T13:27:30;3.60;;;1.05;;
49071;SDS011;74284;52.610;10.236;2024-03-23T13:29:55;2.92;;;1.25;;
49071;SDS011;74284;52.610;10.236;2024-03-23T13:34:46;4.07;;;1.20;;
49071;SDS011;74284;52.610;10.236;2024-03-23T13:37:15;3.30;;;1.20;;
49071;SDS011;74284;52.610;10.236;2024-03-23T13:42:06;3.22;;;1.33;;
49071;SDS011;74284;52.610;10.236;2024-03-23T13:44:34;5.03;;;1.45;;
49071;SDS011;74284;52.610;10.236;2024-03-23T13:49:28;3.43;;;1.60;;
49071;SDS011;74284;52.610;10.236;2024-03-23T13:51:54;3.42;;;1.70;;
49071;SDS011;74284;52.610;10.236;2024-03-23T13:54:21;5.68;;;2.17;;
49071;SDS011;74284;52.610;10.236;2024-03-23T13:59:18;3.15;;;1.50;;
49071;SDS011;74284;52.610;10.236;2024-03-23T14:04:10;5.27;;;1.93;;
49071;SDS011;74284;52.610;10.236;2024-03-23T14:09:01;4.82;;;1.70;;
49071;SDS011;74284;52.610;10.236;2024-03-23T14:11:28;4.45;;;1.48;;
49071;SDS011;74284;52.610;10.236;2024-03-23T14:16:19;3.80;;;1.50;;
49071;SDS011;74284;52.610;10.236;2024-03-23T14:21:13;3.88;;;1.58;;
49071;SDS011;74284;52.610;10.236;2024-03-23T14:26:05;5.93;;;2.10;;
49071;SDS011;74284;52.610;10.236;2024-03-23T14:30:56;4.68;;;1.58;;
49071;SDS011;74284;52.610;10.236;2024-03-23T14:35:56;6.03;;;2.37;;
49071;SDS011;74284;52.610;10.236;2024-03-23T14:38:22;5.50;;;1.63;;
49071;SDS011;74284;52.610;10.236;2024-03-23T14:43:12;5.63;;;1.97;;
49071;SDS011;74284;52.610;10.236;2024-03-23T14:45:48;5.28;;;1.45;;
49071;SDS011;74284;52.610;10.236;2024-03-23T14:48:33;2.70;;;1.63;;
49071;SDS011;74284;52.610;10.236;2024-03-23T14:50:59;5.55;;;1.95;;
49071;SDS011;74284;52.610;10.236;2024-03-23T14:55:53;2.20;;;1.00;;
49071;SDS011;74284;52.610;10.236;2024-03-23T14:58:19;4.20;;;1.42;;
49071;SDS011;74284;52.610;10.236;2024-03-23T15:03:10;5.20;;;1.35;;
49071;SDS011;74284;52.610;10.236;2024-03-23T15:08:02;1.95;;;1.20;;
49071;SDS011;74284;52.610;10.236;2024-03-23T15:12:53;3.93;;;1.33;;
49071;SDS011;74284;52.610;10.236;2024-03-23T15:17:43;3.27;;;1.53;;
49071;SDS011;74284;52.610;10.236;2024-03-23T15:20:10;5.32;;;1.33;;
49071;SDS011;74284;52.610;10.236;2024-03-23T15:22:38;5.72;;;1.40;;
49071;SDS011;74284;52.610;10.236;2024-03-23T15:27:29;1.85;;;1.10;;
49071;SDS011;74284;52.610;10.236;2024-03-23T15:32:21;4.28;;;1.58;;
49071;SDS011;74284;52.610;10.236;2024-03-23T15:37:12;2.37;;;1.40;;
49071;SDS011;74284;52.610;10.236;2024-03-23T15:39:37;3.20;;;1.25;;
49071;SDS011;74284;52.610;10.236;2024-03-23T15:44:29;3.65;;;1.45;;
49071;SDS011;74284;52.610;10.236;2024-03-23T15:49:20;3.33;;;1.30;;
49071;SDS011;74284;52.610;10.236;2024-03-23T15:51:45;4.47;;;1.30;;
49071;SDS011;74284;52.610;10.236;2024-03-23T15:56:36;3.25;;;1.33;;
49071;SDS011;74284;52.610;10.236;2024-03-23T16:01:31;3.67;;;1.38;;
49071;SDS011;74284;52.610;10.236;2024-03-23T16:04:01;3.53;;;1.20;;
49071;SDS011;74284;52.610;10.236;2024-03-23T16:08:52;4.82;;;1.65;;
49071;SDS011;74284;52.610;10.236;2024-03-23T16:13:43;2.58;;;1.42;;
49071;SDS011;74284;52.610;10.236;2024-03-23T16:18:36;3.53;;;1.42;;
49071;SDS011;74284;52.610;10.236;2024-03-23T16:21:04;2.17;;;1.08;;
49071;SDS011;74284;52.610;10.236;2024-03-23T16:23:31;3.78;;;1.30;;
49071;SDS011;74284;52.610;10.236;2024-03-23T16:25:57;3.95;;;1.33;;
49071;SDS011;74284;52.610;10.236;2024-03-23T16:31:00;3.00;;;1.30;;
49071;SDS011;74284;52.610;10.236;2024-03-23T16:33:26;4.68;;;1.38;;
49071;SDS011;74284;52.610;10.236;2024-03-23T16:35:56;3.65;;;1.63;;
49071;SDS011;74284;52.610;10.236;2024-03-23T16:38:28;3.25;;;1.20;;
49071;SDS011;74284;52.610;10.236;2024-03-23T16:43:22;3.13;;;1.30;;
49071;SDS011;74284;52.610;10.236;2024-03-23T16:48:17;4.88;;;1.38;;
49071;SDS011;74284;52.610;10.236;2024-03-23T16:53:08;3.00;;;1.50;;
49071;SDS011;74284;52.610;10.236;2024-03-23T16:55:34;2.63;;;1.27;;
49071;SDS011;74284;52.610;10.236;2024-03-23T16:58:00;6.45;;;1.40;;
49071;SDS011;74284;52.610;10.236;2024-03-23T17:00:25;4.97;;;1.67;;
49071;SDS011;74284;52.610;10.236;2024-03-23T17:05:16;3.85;;;1.40;;
49071;SDS011;74284;52.610;10.236;2024-03-23T17:07:42;4.95;;;1.38;;
49071;SDS011;74284;52.610;10.236;2024-03-23T17:10:09;5.22;;;1.50;;
49071;SDS011;74284;52.610;10.236;2024-03-23T17:12:34;3.17;;;1.52;;
49071;SDS011;74284;52.610;10.236;2024-03-23T17:15:03;1.98;;;1.23;;
49071;SDS011;74284;52.610;10.236;2024-03-23T17:17:31;1.88;;;1.17;;
49071;SDS011;74284;52.610;10.236;2024-03-23T17:19:59;5.32;;;1.60;;
49071;SDS011;74284;52.610;10.236;2024-03-23T17:22:28;4.47;;;1.60;;
49071;SDS011;74284;52.610;10.236;2024-03-23T17:24:54;4.25;;;1.65;;
49071;SDS011;74284;52.610;10.236;2024-03-23T17:27:19;4.22;;;1.45;;
49071;SDS011;74284;52.610;10.236;2024-03-23T17:29:44;3.93;;;1.50;;
49071;SDS011;74284;52.610;10.236;2024-03-23T17:32:13;3.45;;;1.50;;
49071;SDS011;74284;52.610;10.236;2024-03-23T17:34:39;5.45;;;1.65;;
49071;SDS011;74284;52.610;10.236;2024-03-23T17:37:05;3.55;;;1.20;;
49071;SDS011;74284;52.610;10.236;2024-03-23T17:39:30;4.97;;;1.50;;
49071;SDS011;74284;52.610;10.236;2024-03-23T17:41:56;3.78;;;1.63;;
49071;SDS011;74284;52.610;10.236;2024-03-23T17:44:22;4.88;;;1.73;;
49071;SDS011;74284;52.610;10.236;2024-03-23T17:46:47;5.82;;;1.55;;
49071;SDS011;74284;52.610;10.236;2024-03-23T17:49:12;3.23;;;1.47;;
49071;SDS011;74284;52.610;10.236;2024-03-23T17:51:37;4.13;;;1.60;;
49071;SDS011;74284;52.610;10.236;2024-03-23T17:54:03;6.15;;;1.80;;
49071;SDS011;74284;52.610;10.236;2024-03-23T17:56:28;6.57;;;2.00;;
49071;SDS011;74284;52.610;10.236;2024-03-23T17:58:53;5.13;;;2.15;;
49071;SDS011;74284;52.610;10.236;2024-03-23T18:01:18;5.50;;;1.92;;
49071;SDS011;74284;52.610;10.236;2024-03-23T18:03:50;3.95;;;1.80;;
49071;SDS011;74284;52.610;10.236;2024-03-23T18:06:16;6.38;;;2.00;;
49071;SDS011;74284;52.610;10.236;2024-03-23T18:08:41;2.47;;;1.58;;
49071;SDS011;74284;52.610;10.236;2024-03-23T18:11:10;7.00;;;2.35;;
49071;SDS011;74284;52.610;10.236;2024-03-23T18:13:36;6.18;;;2.40;;
49071;SDS011;74284;52.610;10.236;2024-03-23T18:16:02;9.18;;;3.53;;
49071;SDS011;74284;52.610;10.236;2024-03-23T18:18:28;3.47;;;2.00;;